sensor_id;sensor_type;location;lat;lon;timestamp;temperature;humidity
13223;DHT22;6676;45.192;5.722;2023-04-20T00:01:28;13.10;99.90
13223;DHT22;6676;45.192;5.722;2023-04-20T00:04:23;13.00;99.90
13223;DHT22;6676;45.192;5.722;2023-04-20T00:07:14;13.00;99.90
13223;DHT22;6676;45.192;5.722;2023-04-20T00:10:09;13.00;99.90
13223;DHT22;6676;45.192;5.722;2023-04-20T00:13:01;13.00;99.90
13223;DHT22;6676;45.192;5.722;2023-04-20T00:15:54;12.90;99.90
13223;DHT22;6676;45.192;5.722;2023-04-20T00:18:47;12.90;99.90
13223;DHT22;6676;45.192;5.722;2023-04-20T00:21:41;12.80;99.90
13223;DHT22;6676;45.192;5.722;2023-04-20T00:24:36;12.80;99.90
13223;DHT22;6676;45.192;5.722;2023-04-20T00:27:28;12.80;99.90
13223;DHT22;6676;45.192;5.722;2023-04-20T00:30:20;12.80;99.90
13223;DHT22;6676;45.192;5.722;2023-04-20T00:33:12;12.80;99.90
13223;DHT22;6676;45.192;5.722;2023-04-20T00:36:05;12.70;99.90
13223;DHT22;6676;45.192;5.722;2023-04-20T00:38:57;12.70;99.90
13223;DHT22;6676;45.192;5.722;2023-04-20T00:41:52;12.70;99.90
13223;DHT22;6676;45.192;5.722;2023-04-20T00:44:44;12.70;99.90
13223;DHT22;6676;45.192;5.722;2023-04-20T00:47:37;12.70;99.90
13223;DHT22;6676;45.192;5.722;2023-04-20T00:50:28;12.70;99.90
13223;DHT22;6676;45.192;5.722;2023-04-20T00:53:20;12.60;99.90
13223;DHT22;6676;45.192;5.722;2023-04-20T00:56:15;12.50;99.90
13223;DHT22;6676;45.192;5.722;2023-04-20T00:59:08;12.50;99.90
13223;DHT22;6676;45.192;5.722;2023-04-20T01:02:01;12.50;99.90
13223;DHT22;6676;45.192;5.722;2023-04-20T01:04:55;12.50;99.90
13223;DHT22;6676;45.192;5.722;2023-04-20T01:07:47;12.40;99.90
13223;DHT22;6676;45.192;5.722;2023-04-20T01:10:39;12.40;99.90
13223;DHT22;6676;45.192;5.722;2023-04-20T01:13:33;12.40;99.90
13223;DHT22;6676;45.192;5.722;2023-04-20T01:16:27;12.30;99.90
13223;DHT22;6676;45.192;5.722;2023-04-20T01:19:22;12.30;99.90
13223;DHT22;6676;45.192;5.722;2023-04-20T01:22:23;12.30;99.90
13223;DHT22;6676;45.192;5.722;2023-04-20T01:25:16;12.30;99.90
13223;DHT22;6676;45.192;5.722;2023-04-20T01:28:07;12.30;99.90
13223;DHT22;6676;45.192;5.722;2023-04-20T01:30:59;12.30;99.90
13223;DHT22;6676;45.192;5.722;2023-04-20T01:33:52;12.20;99.90
13223;DHT22;6676;45.192;5.722;2023-04-20T01:39:24;12.20;99.90
13223;DHT22;6676;45.192;5.722;2023-04-20T01:42:16;12.20;99.90
13223;DHT22;6676;45.192;5.722;2023-04-20T01:45:09;12.20;99.90
13223;DHT22;6676;45.192;5.722;2023-04-20T01:48:01;12.10;99.90
13223;DHT22;6676;45.192;5.722;2023-04-20T01:50:54;12.10;99.90
13223;DHT22;6676;45.192;5.722;2023-04-20T01:53:45;12.00;99.90
13223;DHT22;6676;45.192;5.722;2023-04-20T01:56:36;11.90;99.90
13223;DHT22;6676;45.192;5.722;2023-04-20T01:59:28;11.80;99.90
13223;DHT22;6676;45.192;5.722;2023-04-20T02:02:21;11.90;99.90
13223;DHT22;6676;45.192;5.722;2023-04-20T02:05:13;11.90;99.90
13223;DHT22;6676;45.192;5.722;2023-04-20T02:08:04;11.80;99.90
13223;DHT22;6676;45.192;5.722;2023-04-20T02:10:56;11.80;99.90
13223;DHT22;6676;45.192;5.722;2023-04-20T02:13:47;11.70;99.90
13223;DHT22;6676;45.192;5.722;2023-04-20T02:16:39;11.70;99.90
13223;DHT22;6676;45.192;5.722;2023-04-20T02:19:31;11.70;99.90
13223;DHT22;6676;45.192;5.722;2023-04-20T02:22:22;11.70;99.90
13223;DHT22;6676;45.192;5.722;2023-04-20T02:25:14;11.70;99.90
13223;DHT22;6676;45.192;5.722;2023-04-20T02:28:07;11.70;99.90
13223;DHT22;6676;45.192;5.722;2023-04-20T02:30:59;11.60;99.90
13223;DHT22;6676;45.192;5.722;2023-04-20T02:33:50;11.60;99.90
13223;DHT22;6676;45.192;5.722;2023-04-20T02:36:42;11.50;99.90
13223;DHT22;6676;45.192;5.722;2023-04-20T02:39:33;11.50;99.90
13223;DHT22;6676;45.192;5.722;2023-04-20T02:42:25;11.40;99.90
13223;DHT22;6676;45.192;5.722;2023-04-20T02:45:18;11.40;99.90
13223;DHT22;6676;45.192;5.722;2023-04-20T02:48:10;11.40;99.90
13223;DHT22;6676;45.192;5.722;2023-04-20T02:51:02;11.40;99.90
13223;DHT22;6676;45.192;5.722;2023-04-20T02:56:35;11.50;99.90
13223;DHT22;6676;45.192;5.722;2023-04-20T02:59:28;11.50;99.90
13223;DHT22;6676;45.192;5.722;2023-04-20T03:02:25;11.50;99.90
13223;DHT22;6676;45.192;5.722;2023-04-20T03:05:16;11.60;99.90
13223;DHT22;6676;45.192;5.722;2023-04-20T03:08:09;11.60;99.90
13223;DHT22;6676;45.192;5.722;2023-04-20T03:11:00;11.60;99.90
13223;DHT22;6676;45.192;5.722;2023-04-20T03:13:52;11.60;99.90
13223;DHT22;6676;45.192;5.722;2023-04-20T03:16:43;11.60;99.90
13223;DHT22;6676;45.192;5.722;2023-04-20T03:19:35;11.50;99.90
13223;DHT22;6676;45.192;5.722;2023-04-20T03:22:27;11.50;99.90
13223;DHT22;6676;45.192;5.722;2023-04-20T03:25:20;11.40;99.90
13223;DHT22;6676;45.192;5.722;2023-04-20T03:28:16;11.40;99.90
13223;DHT22;6676;45.192;5.722;2023-04-20T03:31:08;11.40;99.90
13223;DHT22;6676;45.192;5.722;2023-04-20T03:33:59;11.50;99.90
13223;DHT22;6676;45.192;5.722;2023-04-20T03:36:51;11.50;99.90
13223;DHT22;6676;45.192;5.722;2023-04-20T03:39:43;11.50;99.90
13223;DHT22;6676;45.192;5.722;2023-04-20T03:42:34;11.50;99.90
13223;DHT22;6676;45.192;5.722;2023-04-20T03:45:27;11.50;99.90
13223;DHT22;6676;45.192;5.722;2023-04-20T03:48:18;11.50;99.90
13223;DHT22;6676;45.192;5.722;2023-04-20T03:51:10;11.40;99.90
13223;DHT22;6676;45.192;5.722;2023-04-20T03:54:01;11.30;99.90
13223;DHT22;6676;45.192;5.722;2023-04-20T03:56:53;11.30;99.90
13223;DHT22;6676;45.192;5.722;2023-04-20T03:59:44;11.30;99.90
13223;DHT22;6676;45.192;5.722;2023-04-20T04:02:37;11.40;99.90
13223;DHT22;6676;45.192;5.722;2023-04-20T04:05:29;11.50;99.90
13223;DHT22;6676;45.192;5.722;2023-04-20T04:08:21;11.40;99.90
13223;DHT22;6676;45.192;5.722;2023-04-20T04:11:12;11.50;99.90
13223;DHT22;6676;45.192;5.722;2023-04-20T04:14:05;11.50;99.90
13223;DHT22;6676;45.192;5.722;2023-04-20T04:16:57;11.40;99.90
13223;DHT22;6676;45.192;5.722;2023-04-20T04:19:50;11.50;99.90
13223;DHT22;6676;45.192;5.722;2023-04-20T04:22:42;11.40;99.90
13223;DHT22;6676;45.192;5.722;2023-04-20T04:25:52;11.40;99.90
13223;DHT22;6676;45.192;5.722;2023-04-20T04:28:45;11.30;99.90
13223;DHT22;6676;45.192;5.722;2023-04-20T04:31:39;11.30;99.90
13223;DHT22;6676;45.192;5.722;2023-04-20T04:34:35;11.40;99.90
13223;DHT22;6676;45.192;5.722;2023-04-20T04:37:27;11.30;99.90
13223;DHT22;6676;45.192;5.722;2023-04-20T04:40:19;11.40;99.90
13223;DHT22;6676;45.192;5.722;2023-04-20T04:43:13;11.40;99.90
13223;DHT22;6676;45.192;5.722;2023-04-20T04:46:07;11.40;99.90
13223;DHT22;6676;45.192;5.722;2023-04-20T04:48:59;11.50;99.90
13223;DHT22;6676;45.192;5.722;2023-04-20T04:51:51;11.40;99.90
13223;DHT22;6676;45.192;5.722;2023-04-20T04:54:43;11.40;99.90
13223;DHT22;6676;45.192;5.722;2023-04-20T04:57:34;11.40;99.90
13223;DHT22;6676;45.192;5.722;2023-04-20T05:00:29;11.40;99.90
13223;DHT22;6676;45.192;5.722;2023-04-20T05:03:22;11.50;99.90
13223;DHT22;6676;45.192;5.722;2023-04-20T05:06:16;11.50;99.90
13223;DHT22;6676;45.192;5.722;2023-04-20T05:09:11;11.50;99.90
13223;DHT22;6676;45.192;5.722;2023-04-20T05:12:07;11.50;99.90
13223;DHT22;6676;45.192;5.722;2023-04-20T05:15:01;11.50;99.90
13223;DHT22;6676;45.192;5.722;2023-04-20T05:17:53;11.50;99.90
13223;DHT22;6676;45.192;5.722;2023-04-20T05:20:47;11.50;99.90
13223;DHT22;6676;45.192;5.722;2023-04-20T05:23:41;11.50;99.90
13223;DHT22;6676;45.192;5.722;2023-04-20T05:26:37;11.60;99.90
13223;DHT22;6676;45.192;5.722;2023-04-20T05:35:01;11.70;99.90
13223;DHT22;6676;45.192;5.722;2023-04-20T05:37:53;11.80;99.90
13223;DHT22;6676;45.192;5.722;2023-04-20T05:40:45;11.70;99.90
13223;DHT22;6676;45.192;5.722;2023-04-20T05:43:36;11.70;99.90
13223;DHT22;6676;45.192;5.722;2023-04-20T05:46:28;11.70;99.90
13223;DHT22;6676;45.192;5.722;2023-04-20T05:49:23;11.70;99.90
13223;DHT22;6676;45.192;5.722;2023-04-20T05:52:17;11.70;99.90
13223;DHT22;6676;45.192;5.722;2023-04-20T05:55:10;11.60;99.90
13223;DHT22;6676;45.192;5.722;2023-04-20T05:58:05;11.50;99.90
13223;DHT22;6676;45.192;5.722;2023-04-20T06:00:59;11.50;99.90
13223;DHT22;6676;45.192;5.722;2023-04-20T06:03:56;11.40;99.90
13223;DHT22;6676;45.192;5.722;2023-04-20T06:06:48;11.40;99.90
13223;DHT22;6676;45.192;5.722;2023-04-20T06:09:40;11.30;99.90
13223;DHT22;6676;45.192;5.722;2023-04-20T06:12:32;11.40;99.90
13223;DHT22;6676;45.192;5.722;2023-04-20T06:15:24;11.20;99.90
13223;DHT22;6676;45.192;5.722;2023-04-20T06:18:16;11.30;99.90
13223;DHT22;6676;45.192;5.722;2023-04-20T06:21:09;11.40;99.90
13223;DHT22;6676;45.192;5.722;2023-04-20T06:24:01;11.40;99.90
13223;DHT22;6676;45.192;5.722;2023-04-20T06:26:52;11.40;99.90
13223;DHT22;6676;45.192;5.722;2023-04-20T06:29:44;11.50;99.90
13223;DHT22;6676;45.192;5.722;2023-04-20T06:32:35;11.40;99.90
13223;DHT22;6676;45.192;5.722;2023-04-20T06:35:28;11.40;99.90
13223;DHT22;6676;45.192;5.722;2023-04-20T06:38:22;11.40;99.90
13223;DHT22;6676;45.192;5.722;2023-04-20T06:41:21;11.50;99.90
13223;DHT22;6676;45.192;5.722;2023-04-20T06:44:13;11.60;99.90
13223;DHT22;6676;45.192;5.722;2023-04-20T06:47:04;11.60;99.90
13223;DHT22;6676;45.192;5.722;2023-04-20T06:49:57;11.70;99.90
13223;DHT22;6676;45.192;5.722;2023-04-20T06:52:48;11.80;99.90
13223;DHT22;6676;45.192;5.722;2023-04-20T06:55:40;11.90;99.90
13223;DHT22;6676;45.192;5.722;2023-04-20T06:58:34;12.00;99.90
13223;DHT22;6676;45.192;5.722;2023-04-20T07:01:27;12.00;99.90
13223;DHT22;6676;45.192;5.722;2023-04-20T07:04:19;12.10;99.90
13223;DHT22;6676;45.192;5.722;2023-04-20T07:07:13;12.30;99.90
13223;DHT22;6676;45.192;5.722;2023-04-20T07:10:06;12.40;99.90
13223;DHT22;6676;45.192;5.722;2023-04-20T07:13:01;12.50;99.90
13223;DHT22;6676;45.192;5.722;2023-04-20T07:15:52;12.50;99.90
13223;DHT22;6676;45.192;5.722;2023-04-20T07:21:57;12.30;99.90
13223;DHT22;6676;45.192;5.722;2023-04-20T07:24:48;12.30;99.90
13223;DHT22;6676;45.192;5.722;2023-04-20T07:27:41;12.40;99.90
13223;DHT22;6676;45.192;5.722;2023-04-20T07:30:32;12.20;99.90
13223;DHT22;6676;45.192;5.722;2023-04-20T07:33:24;12.10;99.90
13223;DHT22;6676;45.192;5.722;2023-04-20T07:36:16;12.00;99.90
13223;DHT22;6676;45.192;5.722;2023-04-20T07:39:08;12.10;99.90
13223;DHT22;6676;45.192;5.722;2023-04-20T07:42:02;12.10;99.90
13223;DHT22;6676;45.192;5.722;2023-04-20T07:44:53;12.10;99.90
13223;DHT22;6676;45.192;5.722;2023-04-20T07:47:45;11.90;99.90
13223;DHT22;6676;45.192;5.722;2023-04-20T07:50:38;11.80;99.90
13223;DHT22;6676;45.192;5.722;2023-04-20T07:53:33;11.90;99.90
13223;DHT22;6676;45.192;5.722;2023-04-20T07:56:24;11.90;99.90
13223;DHT22;6676;45.192;5.722;2023-04-20T07:59:16;11.90;99.90
13223;DHT22;6676;45.192;5.722;2023-04-20T08:04:51;11.80;99.90
13223;DHT22;6676;45.192;5.722;2023-04-20T08:07:43;11.90;99.90
13223;DHT22;6676;45.192;5.722;2023-04-20T08:10:35;11.80;99.90
13223;DHT22;6676;45.192;5.722;2023-04-20T08:13:27;11.90;99.90
13223;DHT22;6676;45.192;5.722;2023-04-20T08:16:20;12.10;99.90
13223;DHT22;6676;45.192;5.722;2023-04-20T08:19:12;12.10;99.90
13223;DHT22;6676;45.192;5.722;2023-04-20T08:22:06;12.10;99.90
13223;DHT22;6676;45.192;5.722;2023-04-20T08:24:57;12.30;99.90
13223;DHT22;6676;45.192;5.722;2023-04-20T08:27:48;12.40;99.90
13223;DHT22;6676;45.192;5.722;2023-04-20T08:30:43;12.30;99.90
13223;DHT22;6676;45.192;5.722;2023-04-20T08:33:35;12.30;99.90
13223;DHT22;6676;45.192;5.722;2023-04-20T08:36:30;12.50;99.90
13223;DHT22;6676;45.192;5.722;2023-04-20T08:39:22;12.70;99.90
13223;DHT22;6676;45.192;5.722;2023-04-20T08:42:14;13.00;99.90
13223;DHT22;6676;45.192;5.722;2023-04-20T08:45:07;13.10;99.90
13223;DHT22;6676;45.192;5.722;2023-04-20T08:47:59;13.20;99.90
13223;DHT22;6676;45.192;5.722;2023-04-20T08:50:53;13.20;99.90
13223;DHT22;6676;45.192;5.722;2023-04-20T08:53:44;13.10;99.90
13223;DHT22;6676;45.192;5.722;2023-04-20T08:56:40;13.00;99.90
13223;DHT22;6676;45.192;5.722;2023-04-20T08:59:36;13.10;99.90
13223;DHT22;6676;45.192;5.722;2023-04-20T09:02:28;13.30;99.90
13223;DHT22;6676;45.192;5.722;2023-04-20T09:08:07;13.50;99.90
13223;DHT22;6676;45.192;5.722;2023-04-20T09:11:00;13.60;99.90
13223;DHT22;6676;45.192;5.722;2023-04-20T09:13:59;13.60;99.90
13223;DHT22;6676;45.192;5.722;2023-04-20T09:16:52;13.80;99.90
13223;DHT22;6676;45.192;5.722;2023-04-20T09:19:52;14.00;99.90
13223;DHT22;6676;45.192;5.722;2023-04-20T09:22:39;14.30;99.90
13223;DHT22;6676;45.192;5.722;2023-04-20T09:25:32;14.60;99.90
13223;DHT22;6676;45.192;5.722;2023-04-20T09:28:33;14.80;99.90
13223;DHT22;6676;45.192;5.722;2023-04-20T09:31:20;15.10;99.90
13223;DHT22;6676;45.192;5.722;2023-04-20T09:34:12;15.30;99.90
13223;DHT22;6676;45.192;5.722;2023-04-20T09:37:04;15.40;99.90
13223;DHT22;6676;45.192;5.722;2023-04-20T09:40:00;15.50;99.90
13223;DHT22;6676;45.192;5.722;2023-04-20T09:42:53;15.30;99.90
13223;DHT22;6676;45.192;5.722;2023-04-20T09:45:45;14.90;99.90
13223;DHT22;6676;45.192;5.722;2023-04-20T09:48:38;14.80;99.90
13223;DHT22;6676;45.192;5.722;2023-04-20T09:51:31;14.80;99.90
13223;DHT22;6676;45.192;5.722;2023-04-20T09:54:24;15.00;99.90
13223;DHT22;6676;45.192;5.722;2023-04-20T09:57:16;15.10;99.90
13223;DHT22;6676;45.192;5.722;2023-04-20T10:00:14;15.30;99.90
13223;DHT22;6676;45.192;5.722;2023-04-20T10:03:06;15.20;99.90
13223;DHT22;6676;45.192;5.722;2023-04-20T10:06:00;15.10;99.90
13223;DHT22;6676;45.192;5.722;2023-04-20T10:08:52;14.90;99.90
13223;DHT22;6676;45.192;5.722;2023-04-20T10:11:44;14.70;99.90
13223;DHT22;6676;45.192;5.722;2023-04-20T10:14:37;14.70;99.90
13223;DHT22;6676;45.192;5.722;2023-04-20T10:20:21;14.60;99.90
13223;DHT22;6676;45.192;5.722;2023-04-20T10:23:13;14.60;99.90
13223;DHT22;6676;45.192;5.722;2023-04-20T10:26:06;14.50;99.90
13223;DHT22;6676;45.192;5.722;2023-04-20T10:28:58;14.40;99.90
13223;DHT22;6676;45.192;5.722;2023-04-20T10:31:52;14.20;99.90
13223;DHT22;6676;45.192;5.722;2023-04-20T10:34:46;14.10;99.90
13223;DHT22;6676;45.192;5.722;2023-04-20T10:37:46;14.10;99.90
13223;DHT22;6676;45.192;5.722;2023-04-20T10:40:40;13.90;99.90
13223;DHT22;6676;45.192;5.722;2023-04-20T10:43:34;13.70;99.90
13223;DHT22;6676;45.192;5.722;2023-04-20T10:46:27;13.40;99.90
13223;DHT22;6676;45.192;5.722;2023-04-20T10:49:29;13.20;99.90
13223;DHT22;6676;45.192;5.722;2023-04-20T10:52:33;13.10;99.90
13223;DHT22;6676;45.192;5.722;2023-04-20T10:55:25;13.00;99.90
13223;DHT22;6676;45.192;5.722;2023-04-20T10:58:22;13.10;99.90
13223;DHT22;6676;45.192;5.722;2023-04-20T11:01:14;13.10;99.90
13223;DHT22;6676;45.192;5.722;2023-04-20T11:04:06;13.10;99.90
13223;DHT22;6676;45.192;5.722;2023-04-20T11:07:05;13.10;99.90
13223;DHT22;6676;45.192;5.722;2023-04-20T11:09:58;13.10;99.90
13223;DHT22;6676;45.192;5.722;2023-04-20T11:12:49;13.20;99.90
13223;DHT22;6676;45.192;5.722;2023-04-20T11:15:42;13.40;99.90
13223;DHT22;6676;45.192;5.722;2023-04-20T11:18:35;13.70;99.90
13223;DHT22;6676;45.192;5.722;2023-04-20T11:21:35;14.00;99.90
13223;DHT22;6676;45.192;5.722;2023-04-20T11:27:20;14.80;99.90
13223;DHT22;6676;45.192;5.722;2023-04-20T11:30:13;15.00;99.90
13223;DHT22;6676;45.192;5.722;2023-04-20T11:33:04;15.20;99.90
13223;DHT22;6676;45.192;5.722;2023-04-20T11:35:57;15.30;99.90
13223;DHT22;6676;45.192;5.722;2023-04-20T11:38:48;15.30;99.90
13223;DHT22;6676;45.192;5.722;2023-04-20T11:41:39;15.30;99.90
13223;DHT22;6676;45.192;5.722;2023-04-20T11:47:12;15.30;99.90
13223;DHT22;6676;45.192;5.722;2023-04-20T11:50:05;15.40;99.90
13223;DHT22;6676;45.192;5.722;2023-04-20T11:53:02;15.40;99.90
13223;DHT22;6676;45.192;5.722;2023-04-20T11:55:54;15.40;99.90
13223;DHT22;6676;45.192;5.722;2023-04-20T11:58:46;15.50;99.90
13223;DHT22;6676;45.192;5.722;2023-04-20T12:01:38;15.30;99.90
13223;DHT22;6676;45.192;5.722;2023-04-20T12:04:31;15.20;99.90
13223;DHT22;6676;45.192;5.722;2023-04-20T12:07:25;15.10;99.90
13223;DHT22;6676;45.192;5.722;2023-04-20T12:10:19;14.90;99.90
13223;DHT22;6676;45.192;5.722;2023-04-20T12:13:10;14.70;99.90
13223;DHT22;6676;45.192;5.722;2023-04-20T12:16:03;14.80;99.90
13223;DHT22;6676;45.192;5.722;2023-04-20T12:18:54;14.70;99.90
13223;DHT22;6676;45.192;5.722;2023-04-20T12:21:46;14.80;99.90
13223;DHT22;6676;45.192;5.722;2023-04-20T12:24:37;15.00;99.90
13223;DHT22;6676;45.192;5.722;2023-04-20T12:27:29;15.20;99.90
13223;DHT22;6676;45.192;5.722;2023-04-20T12:30:21;15.00;99.90
13223;DHT22;6676;45.192;5.722;2023-04-20T12:33:14;15.00;99.90
13223;DHT22;6676;45.192;5.722;2023-04-20T12:36:06;15.10;99.90
13223;DHT22;6676;45.192;5.722;2023-04-20T12:38:58;15.20;99.90
13223;DHT22;6676;45.192;5.722;2023-04-20T12:41:50;15.50;99.90
13223;DHT22;6676;45.192;5.722;2023-04-20T12:44:42;15.50;99.90
13223;DHT22;6676;45.192;5.722;2023-04-20T12:47:33;15.80;99.90
13223;DHT22;6676;45.192;5.722;2023-04-20T12:50:25;16.00;99.90
13223;DHT22;6676;45.192;5.722;2023-04-20T12:53:16;16.00;99.90
13223;DHT22;6676;45.192;5.722;2023-04-20T12:56:08;16.00;99.90
13223;DHT22;6676;45.192;5.722;2023-04-20T12:59:01;16.30;99.90
13223;DHT22;6676;45.192;5.722;2023-04-20T13:01:53;16.70;99.90
13223;DHT22;6676;45.192;5.722;2023-04-20T13:04:45;16.90;99.90
13223;DHT22;6676;45.192;5.722;2023-04-20T13:07:36;16.90;99.90
13223;DHT22;6676;45.192;5.722;2023-04-20T13:10:28;16.90;99.90
13223;DHT22;6676;45.192;5.722;2023-04-20T13:13:19;16.70;99.90
13223;DHT22;6676;45.192;5.722;2023-04-20T13:16:11;16.60;99.90
13223;DHT22;6676;45.192;5.722;2023-04-20T13:19:03;16.40;99.90
13223;DHT22;6676;45.192;5.722;2023-04-20T13:21:54;16.10;99.90
13223;DHT22;6676;45.192;5.722;2023-04-20T13:24:46;16.20;99.90
13223;DHT22;6676;45.192;5.722;2023-04-20T13:27:45;16.20;99.90
13223;DHT22;6676;45.192;5.722;2023-04-20T13:30:37;16.30;99.90
13223;DHT22;6676;45.192;5.722;2023-04-20T13:33:29;16.30;99.90
13223;DHT22;6676;45.192;5.722;2023-04-20T13:36:21;16.50;99.90
13223;DHT22;6676;45.192;5.722;2023-04-20T13:39:15;16.80;99.90
13223;DHT22;6676;45.192;5.722;2023-04-20T13:42:09;16.80;99.90
13223;DHT22;6676;45.192;5.722;2023-04-20T13:45:01;16.90;99.90
13223;DHT22;6676;45.192;5.722;2023-04-20T13:47:53;17.30;99.90
13223;DHT22;6676;45.192;5.722;2023-04-20T13:50:44;17.00;99.90
13223;DHT22;6676;45.192;5.722;2023-04-20T13:53:36;16.80;99.90
13223;DHT22;6676;45.192;5.722;2023-04-20T13:56:27;16.50;99.90
13223;DHT22;6676;45.192;5.722;2023-04-20T13:59:19;16.30;99.90
13223;DHT22;6676;45.192;5.722;2023-04-20T14:02:13;16.10;99.90
13223;DHT22;6676;45.192;5.722;2023-04-20T14:05:06;16.50;99.90
13223;DHT22;6676;45.192;5.722;2023-04-20T14:07:59;16.60;99.90
13223;DHT22;6676;45.192;5.722;2023-04-20T14:10:50;16.30;99.90
13223;DHT22;6676;45.192;5.722;2023-04-20T14:13:41;16.30;99.90
13223;DHT22;6676;45.192;5.722;2023-04-20T14:16:40;16.60;99.90
13223;DHT22;6676;45.192;5.722;2023-04-20T14:19:26;16.70;99.90
13223;DHT22;6676;45.192;5.722;2023-04-20T14:22:18;16.70;99.90
13223;DHT22;6676;45.192;5.722;2023-04-20T14:25:10;16.60;99.90
13223;DHT22;6676;45.192;5.722;2023-04-20T14:28:02;16.70;99.90
13223;DHT22;6676;45.192;5.722;2023-04-20T14:30:53;17.00;99.90
13223;DHT22;6676;45.192;5.722;2023-04-20T14:33:45;17.50;99.90
13223;DHT22;6676;45.192;5.722;2023-04-20T14:36:37;17.90;99.90
13223;DHT22;6676;45.192;5.722;2023-04-20T14:39:32;18.20;99.90
13223;DHT22;6676;45.192;5.722;2023-04-20T14:42:46;18.30;99.90
13223;DHT22;6676;45.192;5.722;2023-04-20T14:45:40;18.80;99.90
13223;DHT22;6676;45.192;5.722;2023-04-20T14:48:33;18.10;99.90
13223;DHT22;6676;45.192;5.722;2023-04-20T14:51:34;17.40;99.90
13223;DHT22;6676;45.192;5.722;2023-04-20T14:54:26;17.10;99.90
13223;DHT22;6676;45.192;5.722;2023-04-20T14:57:19;17.60;99.90
13223;DHT22;6676;45.192;5.722;2023-04-20T15:00:15;17.60;99.90
13223;DHT22;6676;45.192;5.722;2023-04-20T15:03:07;17.50;99.90
13223;DHT22;6676;45.192;5.722;2023-04-20T15:06:00;17.40;99.90
13223;DHT22;6676;45.192;5.722;2023-04-20T15:08:54;17.20;99.90
13223;DHT22;6676;45.192;5.722;2023-04-20T15:11:46;17.10;99.90
13223;DHT22;6676;45.192;5.722;2023-04-20T15:14:37;16.80;99.90
13223;DHT22;6676;45.192;5.722;2023-04-20T15:17:29;16.80;99.90
13223;DHT22;6676;45.192;5.722;2023-04-20T15:20:22;17.10;99.90
13223;DHT22;6676;45.192;5.722;2023-04-20T15:23:14;17.40;99.90
13223;DHT22;6676;45.192;5.722;2023-04-20T15:26:07;17.80;99.90
13223;DHT22;6676;45.192;5.722;2023-04-20T15:28:59;17.90;99.90
13223;DHT22;6676;45.192;5.722;2023-04-20T15:31:51;18.10;99.90
13223;DHT22;6676;45.192;5.722;2023-04-20T15:34:42;18.00;99.90
13223;DHT22;6676;45.192;5.722;2023-04-20T15:37:34;17.70;99.90
13223;DHT22;6676;45.192;5.722;2023-04-20T15:40:26;17.30;99.90
13223;DHT22;6676;45.192;5.722;2023-04-20T15:43:18;17.30;99.90
13223;DHT22;6676;45.192;5.722;2023-04-20T15:46:10;17.30;99.90
13223;DHT22;6676;45.192;5.722;2023-04-20T15:49:02;17.00;99.90
13223;DHT22;6676;45.192;5.722;2023-04-20T15:51:54;16.90;99.90
13223;DHT22;6676;45.192;5.722;2023-04-20T15:54:46;16.90;99.90
13223;DHT22;6676;45.192;5.722;2023-04-20T15:57:38;16.60;99.90
13223;DHT22;6676;45.192;5.722;2023-04-20T16:00:34;16.30;99.90
13223;DHT22;6676;45.192;5.722;2023-04-20T16:03:25;16.20;99.90
13223;DHT22;6676;45.192;5.722;2023-04-20T16:06:17;16.30;99.90
13223;DHT22;6676;45.192;5.722;2023-04-20T16:09:08;16.20;99.90
13223;DHT22;6676;45.192;5.722;2023-04-20T16:14:41;16.10;99.90
13223;DHT22;6676;45.192;5.722;2023-04-20T16:17:32;16.00;99.90
13223;DHT22;6676;45.192;5.722;2023-04-20T16:20:23;15.80;99.90
13223;DHT22;6676;45.192;5.722;2023-04-20T16:23:15;15.80;99.90
13223;DHT22;6676;45.192;5.722;2023-04-20T16:26:07;15.60;99.90
13223;DHT22;6676;45.192;5.722;2023-04-20T16:28:59;15.60;99.90
13223;DHT22;6676;45.192;5.722;2023-04-20T16:31:50;15.50;99.90
13223;DHT22;6676;45.192;5.722;2023-04-20T16:34:42;15.40;99.90
13223;DHT22;6676;45.192;5.722;2023-04-20T16:37:34;15.40;99.90
13223;DHT22;6676;45.192;5.722;2023-04-20T16:40:25;15.40;99.90
13223;DHT22;6676;45.192;5.722;2023-04-20T16:43:17;15.40;99.90
13223;DHT22;6676;45.192;5.722;2023-04-20T16:48:54;15.10;99.90
13223;DHT22;6676;45.192;5.722;2023-04-20T16:51:45;15.00;99.90
13223;DHT22;6676;45.192;5.722;2023-04-20T16:54:39;15.10;99.90
13223;DHT22;6676;45.192;5.722;2023-04-20T16:57:32;15.00;99.90
13223;DHT22;6676;45.192;5.722;2023-04-20T17:00:27;15.10;99.90
13223;DHT22;6676;45.192;5.722;2023-04-20T17:03:21;15.20;99.90
13223;DHT22;6676;45.192;5.722;2023-04-20T17:06:14;15.10;99.90
13223;DHT22;6676;45.192;5.722;2023-04-20T17:09:06;15.00;99.90
13223;DHT22;6676;45.192;5.722;2023-04-20T17:12:00;14.80;99.90
13223;DHT22;6676;45.192;5.722;2023-04-20T17:14:51;14.80;99.90
13223;DHT22;6676;45.192;5.722;2023-04-20T17:17:43;14.80;99.90
13223;DHT22;6676;45.192;5.722;2023-04-20T17:20:35;14.60;99.90
13223;DHT22;6676;45.192;5.722;2023-04-20T17:23:26;14.40;99.90
13223;DHT22;6676;45.192;5.722;2023-04-20T17:26:18;14.30;99.90
13223;DHT22;6676;45.192;5.722;2023-04-20T17:29:10;14.10;99.90
13223;DHT22;6676;45.192;5.722;2023-04-20T17:32:02;14.10;99.90
13223;DHT22;6676;45.192;5.722;2023-04-20T17:34:54;13.90;99.90
13223;DHT22;6676;45.192;5.722;2023-04-20T17:37:49;13.90;99.90
13223;DHT22;6676;45.192;5.722;2023-04-20T17:40:41;13.90;99.90
13223;DHT22;6676;45.192;5.722;2023-04-20T17:43:32;13.80;99.90
13223;DHT22;6676;45.192;5.722;2023-04-20T17:46:25;13.80;99.90
13223;DHT22;6676;45.192;5.722;2023-04-20T17:49:17;13.70;99.90
13223;DHT22;6676;45.192;5.722;2023-04-20T17:52:09;13.80;99.90
13223;DHT22;6676;45.192;5.722;2023-04-20T17:55:03;13.60;99.90
13223;DHT22;6676;45.192;5.722;2023-04-20T17:57:54;13.50;99.90
13223;DHT22;6676;45.192;5.722;2023-04-20T18:03:29;13.60;99.90
13223;DHT22;6676;45.192;5.722;2023-04-20T18:06:20;13.50;99.90
13223;DHT22;6676;45.192;5.722;2023-04-20T18:09:12;13.40;99.90
13223;DHT22;6676;45.192;5.722;2023-04-20T18:12:04;13.30;99.90
13223;DHT22;6676;45.192;5.722;2023-04-20T18:14:56;13.30;99.90
13223;DHT22;6676;45.192;5.722;2023-04-20T18:17:49;13.20;99.90
13223;DHT22;6676;45.192;5.722;2023-04-20T18:20:40;13.20;99.90
13223;DHT22;6676;45.192;5.722;2023-04-20T18:23:32;13.30;99.90
13223;DHT22;6676;45.192;5.722;2023-04-20T18:26:23;13.30;99.90
13223;DHT22;6676;45.192;5.722;2023-04-20T18:29:15;13.20;99.90
13223;DHT22;6676;45.192;5.722;2023-04-20T18:32:09;13.20;99.90
13223;DHT22;6676;45.192;5.722;2023-04-20T18:35:02;13.10;99.90
13223;DHT22;6676;45.192;5.722;2023-04-20T18:40:34;13.00;99.90
13223;DHT22;6676;45.192;5.722;2023-04-20T18:43:26;13.00;99.90
13223;DHT22;6676;45.192;5.722;2023-04-20T18:46:18;13.00;99.90
13223;DHT22;6676;45.192;5.722;2023-04-20T18:49:10;12.90;99.90
13223;DHT22;6676;45.192;5.722;2023-04-20T18:52:02;12.90;99.90
13223;DHT22;6676;45.192;5.722;2023-04-20T18:54:53;12.80;99.90
13223;DHT22;6676;45.192;5.722;2023-04-20T18:57:46;12.80;99.90
13223;DHT22;6676;45.192;5.722;2023-04-20T19:00:38;12.80;99.90
13223;DHT22;6676;45.192;5.722;2023-04-20T19:03:30;12.80;99.90
13223;DHT22;6676;45.192;5.722;2023-04-20T19:06:22;12.70;99.90